Time;durP1;ratioP1;P1;durP2;ratioP2;P2;SDS_P1;SDS_P2;PMS_P1;PMS_P2;Temp;Humidity;BMP_temperature;BMP_pressure;BME280_temperature;BME280_humidity;BME280_pressure;Samples;Min_cycle;Max_cycle;Signal;HPM_P1;HPM_P2
2023/05/18 00:00:20;;;;;;;7.75;3.05;;;9.90;99.90;;;;;;4879444;29;20547;-59
2023/05/18 00:02:49;;;;;;;7.35;2.88;;;9.90;99.90;;;;;;4879235;29;20225;-59
2023/05/18 00:05:17;;;;;;;9.70;3.85;;;9.90;99.90;;;;;;4879587;29;20192;-59
2023/05/18 00:07:43;;;;;;;8.02;3.00;;;9.80;99.90;;;;;;4879210;29;20197;-59
2023/05/18 00:10:10;;;;;;;7.10;2.90;;;9.80;99.90;;;;;;4879207;29;20177;-59
2023/05/18 00:12:36;;;;;;;4.75;2.55;;;9.60;99.90;;;;;;4881359;29;20614;-59
2023/05/18 00:15:02;;;;;;;5.97;2.78;;;9.70;99.90;;;;;;4883074;29;20185;-59
2023/05/18 00:17:28;;;;;;;6.30;2.97;;;9.70;99.90;;;;;;4882711;29;20300;-59
2023/05/18 00:19:57;;;;;;;8.30;2.60;;;9.80;99.90;;;;;;4882900;29;20181;-59
2023/05/18 00:22:25;;;;;;;8.27;3.00;;;9.70;99.90;;;;;;4882773;29;20176;-59
2023/05/18 00:24:51;;;;;;;5.85;2.60;;;9.60;99.90;;;;;;4882974;29;20186;-59
2023/05/18 00:27:16;;;;;;;6.25;2.30;;;9.60;99.90;;;;;;4882901;29;20258;-59
2023/05/18 00:29:42;;;;;;;5.60;3.13;;;9.60;99.90;;;;;;4882800;29;20261;-59
2023/05/18 00:32:08;;;;;;;5.20;2.60;;;9.60;99.90;;;;;;4882537;29;20193;-59
2023/05/18 00:34:33;;;;;;;6.43;2.80;;;9.60;99.90;;;;;;4882603;29;20229;-59
2023/05/18 00:36:59;;;;;;;11.43;2.67;;;9.60;99.90;;;;;;4882528;29;20188;-59
2023/05/18 00:39:25;;;;;;;6.32;2.92;;;9.60;99.90;;;;;;4882607;29;20278;-59
2023/05/18 00:41:50;;;;;;;4.93;2.85;;;9.60;99.90;;;;;;4882640;29;20232;-59
2023/05/18 00:44:16;;;;;;;12.55;3.20;;;9.70;99.90;;;;;;4882526;29;20272;-59
2023/05/18 00:46:43;;;;;;;5.20;2.50;;;9.60;99.90;;;;;;4882328;29;20185;-59
2023/05/18 00:49:10;;;;;;;7.18;2.72;;;9.60;99.90;;;;;;4882364;29;20268;-59
2023/05/18 00:51:36;;;;;;;5.38;2.67;;;9.70;99.90;;;;;;4882151;29;20185;-59
2023/05/18 00:54:03;;;;;;;8.00;2.65;;;9.60;99.90;;;;;;4882488;29;20208;-60
2023/05/18 00:56:32;;;;;;;9.07;3.13;;;9.60;99.90;;;;;;4882329;29;20186;-59
2023/05/18 00:59:00;;;;;;;7.05;3.03;;;9.60;99.90;;;;;;4881987;29;20690;-59
2023/05/18 01:01:28;;;;;;;5.63;2.60;;;9.60;99.90;;;;;;4882244;29;20218;-59
2023/05/18 01:04:00;;;;;;;6.07;3.00;;;9.70;99.90;;;;;;4882332;29;20221;-59
2023/05/18 01:06:28;;;;;;;6.93;2.70;;;9.70;99.90;;;;;;4882320;29;20188;-59
2023/05/18 01:08:54;;;;;;;4.28;2.58;;;9.70;99.90;;;;;;4882044;29;20213;-59
2023/05/18 01:11:50;;;;;;;6.85;3.33;;;9.60;99.90;;;;;;4882099;29;20656;-59
2023/05/18 01:14:25;;;;;;;5.90;2.92;;;9.60;99.90;;;;;;4881967;29;20256;-59
2023/05/18 01:16:54;;;;;;;7.15;2.92;;;9.60;99.90;;;;;;4881856;29;20655;-59
2023/05/18 01:19:51;;;;;;;6.95;2.72;;;9.60;99.90;;;;;;4881937;29;20611;-59
2023/05/18 01:22:34;;;;;;;9.35;2.85;;;9.60;99.90;;;;;;4881354;29;20268;-59
2023/05/18 01:25:24;;;;;;;8.05;3.03;;;9.50;99.90;;;;;;4881716;29;20547;-59
2023/05/18 01:27:54;;;;;;;6.43;2.95;;;9.60;99.90;;;;;;4834206;29;20193;-59
2023/05/18 01:30:21;;;;;;;6.15;2.88;;;9.50;99.90;;;;;;4881678;29;20181;-59
2023/05/18 01:32:46;;;;;;;5.45;2.67;;;9.50;99.90;;;;;;4881575;29;20242;-59
2023/05/18 01:35:12;;;;;;;9.30;3.05;;;9.50;99.90;;;;;;4881580;29;20182;-59
2023/05/18 01:37:38;;;;;;;7.65;3.28;;;9.40;99.90;;;;;;4864612;29;20782;-59
2023/05/18 01:40:06;;;;;;;5.63;3.00;;;9.30;99.90;;;;;;4881457;29;20205;-59
2023/05/18 01:42:40;;;;;;;7.10;2.45;;;9.30;99.90;;;;;;4881481;29;20230;-59
2023/05/18 01:45:16;;;;;;;7.20;2.97;;;9.40;99.90;;;;;;4881545;29;20173;-59
2023/05/18 01:47:45;;;;;;;6.78;2.83;;;9.30;99.90;;;;;;4881306;29;20232;-59
2023/05/18 01:50:17;;;;;;;6.75;3.00;;;9.30;99.90;;;;;;4881256;29;20173;-59
2023/05/18 01:52:52;;;;;;;7.50;3.60;;;9.40;99.90;;;;;;4881574;29;20188;-59
2023/05/18 01:55:19;;;;;;;8.48;3.15;;;9.30;99.90;;;;;;4881409;29;20205;-59
2023/05/18 01:57:47;;;;;;;9.27;3.17;;;9.20;99.90;;;;;;4881103;29;20217;-59
2023/05/18 02:00:16;;;;;;;5.78;3.13;;;9.10;99.90;;;;;;4881085;29;20185;-59
2023/05/18 02:02:42;;;;;;;7.63;2.92;;;9.10;99.90;;;;;;4880731;29;20237;-59
2023/05/18 02:05:11;;;;;;;6.10;2.67;;;9.10;99.90;;;;;;4881183;29;20192;-59
2023/05/18 02:07:38;;;;;;;10.27;3.53;;;9.10;99.90;;;;;;4881006;29;20250;-59
2023/05/18 02:10:05;;;;;;;5.88;3.13;;;9.20;99.90;;;;;;4881053;29;20589;-59
2023/05/18 02:12:31;;;;;;;7.85;2.90;;;9.20;99.90;;;;;;4880864;29;20180;-59
2023/05/18 02:14:57;;;;;;;4.15;2.78;;;9.10;99.90;;;;;;4880781;29;20185;-59
2023/05/18 02:17:25;;;;;;;8.43;3.40;;;9.10;99.90;;;;;;4880949;29;20188;-59
2023/05/18 02:19:51;;;;;;;5.93;3.50;;;9.10;99.90;;;;;;4881074;29;20189;-59
2023/05/18 02:22:16;;;;;;;7.10;3.05;;;9.10;99.90;;;;;;4880674;29;20182;-59
2023/05/18 02:24:42;;;;;;;5.88;3.08;;;9.00;99.90;;;;;;4880748;29;20584;-59
2023/05/18 02:27:07;;;;;;;10.10;3.08;;;9.00;99.90;;;;;;4880687;29;20635;-59
2023/05/18 02:29:33;;;;;;;9.63;3.15;;;8.90;99.90;;;;;;4880565;29;20186;-59
2023/05/18 02:31:59;;;;;;;7.03;2.95;;;8.90;99.90;;;;;;4880510;29;20238;-59
2023/05/18 02:34:26;;;;;;;5.15;2.90;;;8.80;99.90;;;;;;4879746;29;20178;-59
2023/05/18 02:36:52;;;;;;;8.98;3.63;;;8.80;99.90;;;;;;4880572;29;20177;-59
2023/05/18 02:39:17;;;;;;;6.50;3.22;;;8.90;99.90;;;;;;4880314;29;20277;-59
2023/05/18 02:41:43;;;;;;;4.13;2.60;;;8.90;99.90;;;;;;4880460;29;20178;-59
2023/05/18 02:44:11;;;;;;;7.07;2.80;;;8.90;99.90;;;;;;4880269;29;20201;-59
2023/05/18 02:46:36;;;;;;;6.15;3.13;;;8.80;99.90;;;;;;4880441;29;20261;-59
2023/05/18 02:49:02;;;;;;;9.10;3.25;;;8.70;99.90;;;;;;4880262;29;20181;-59
2023/05/18 02:51:29;;;;;;;7.25;2.92;;;8.70;99.90;;;;;;4880254;29;20177;-59
2023/05/18 02:53:54;;;;;;;8.38;2.97;;;8.70;99.90;;;;;;4880222;29;20182;-60
2023/05/18 02:56:20;;;;;;;6.28;3.30;;;8.60;99.90;;;;;;4880176;29;20182;-59
2023/05/18 02:58:46;;;;;;;5.50;2.78;;;8.70;99.90;;;;;;4879977;29;20239;-59
2023/05/18 03:01:11;;;;;;;6.15;3.00;;;8.60;99.90;;;;;;4880272;29;20211;-59
2023/05/18 03:03:38;;;;;;;6.68;2.80;;;8.60;99.90;;;;;;4880118;29;20292;-59
2023/05/18 03:06:07;;;;;;;5.32;2.28;;;8.50;99.90;;;;;;4880079;29;20205;-59
2023/05/18 03:08:32;;;;;;;6.00;2.80;;;8.50;99.90;;;;;;4879830;29;20249;-59
2023/05/18 03:10:58;;;;;;;7.07;3.38;;;8.50;99.90;;;;;;4879877;29;20179;-60
2023/05/18 03:13:24;;;;;;;7.55;2.67;;;8.50;99.90;;;;;;4879818;29;20181;-59
2023/05/18 03:15:50;;;;;;;4.35;2.78;;;8.50;99.90;;;;;;4879965;29;20181;-59
2023/05/18 03:18:17;;;;;;;7.20;3.03;;;8.40;99.90;;;;;;4879828;29;20220;-59
2023/05/18 03:20:43;;;;;;;7.53;3.00;;;8.40;99.90;;;;;;4879937;29;20299;-59
2023/05/18 03:23:09;;;;;;;6.68;3.05;;;8.50;99.90;;;;;;4879713;29;20241;-59
2023/05/18 03:25:36;;;;;;;4.90;2.58;;;8.40;99.90;;;;;;4879627;29;20181;-59
2023/05/18 03:28:03;;;;;;;8.02;2.85;;;8.40;99.90;;;;;;4879617;29;20542;-59
2023/05/18 03:30:31;;;;;;;6.18;2.75;;;8.30;99.90;;;;;;4880022;29;20598;-59
2023/05/18 03:32:58;;;;;;;7.07;3.28;;;8.30;99.90;;;;;;4879989;29;20181;-59
2023/05/18 03:35:24;;;;;;;6.57;3.22;;;8.20;99.90;;;;;;4879535;29;20193;-59
2023/05/18 03:37:49;;;;;;;7.22;3.17;;;8.30;99.90;;;;;;4879544;29;20292;-59
2023/05/18 03:40:15;;;;;;;6.38;3.10;;;8.10;99.90;;;;;;4879531;29;20276;-59
2023/05/18 03:42:42;;;;;;;9.45;3.28;;;8.10;99.90;;;;;;4879435;29;20288;-59
2023/05/18 03:45:09;;;;;;;7.15;2.90;;;8.30;99.90;;;;;;4879503;29;20178;-59
2023/05/18 03:47:36;;;;;;;7.10;3.20;;;8.30;99.90;;;;;;4879544;29;20192;-59
2023/05/18 03:50:03;;;;;;;6.53;3.30;;;8.30;99.90;;;;;;4879465;29;20185;-59
2023/05/18 03:52:28;;;;;;;9.32;2.97;;;8.30;99.90;;;;;;4879322;29;20184;-59
2023/05/18 03:54:55;;;;;;;8.60;3.15;;;8.30;99.90;;;;;;4879383;29;20182;-59
2023/05/18 03:57:21;;;;;;;8.40;3.42;;;8.40;99.90;;;;;;4879152;29;20225;-59
2023/05/18 03:59:46;;;;;;;7.40;3.40;;;8.30;99.90;;;;;;4879447;29;20189;-59
2023/05/18 04:02:12;;;;;;;6.43;2.75;;;8.30;99.90;;;;;;4879321;29;20177;-59
2023/05/18 04:04:44;;;;;;;6.90;3.38;;;8.40;99.90;;;;;;4879350;29;20749;-59
2023/05/18 04:07:11;;;;;;;5.75;2.92;;;8.40;99.90;;;;;;4879370;29;20232;-59
2023/05/18 04:09:38;;;;;;;8.93;3.83;;;8.40;99.90;;;;;;4879176;29;20242;-59
2023/05/18 04:12:04;;;;;;;4.50;2.85;;;8.40;99.90;;;;;;4879390;29;20189;-59
2023/05/18 04:14:31;;;;;;;7.38;3.05;;;8.40;99.90;;;;;;4879159;29;20181;-59
2023/05/18 04:17:03;;;;;;;4.95;2.67;;;8.40;99.90;;;;;;4879480;29;20182;-59
2023/05/18 04:19:33;;;;;;;5.97;3.58;;;8.30;99.90;;;;;;4879159;29;20237;-59
2023/05/18 04:21:59;;;;;;;9.30;3.20;;;8.30;99.90;;;;;;4879187;29;20185;-59
2023/05/18 04:24:25;;;;;;;6.88;3.47;;;8.30;99.90;;;;;;4879097;29;20284;-59
2023/05/18 04:26:52;;;;;;;9.65;3.55;;;8.40;99.90;;;;;;4879301;29;20208;-59
2023/05/18 04:29:18;;;;;;;7.25;3.20;;;8.50;99.90;;;;;;4879198;29;20173;-59
2023/05/18 04:31:46;;;;;;;7.18;3.10;;;8.40;99.90;;;;;;4879225;29;20184;-59
2023/05/18 04:34:12;;;;;;;6.10;3.10;;;8.50;99.90;;;;;;4879079;29;20186;-59
2023/05/18 04:36:41;;;;;;;8.00;3.08;;;8.40;99.90;;;;;;4879078;29;20256;-59
2023/05/18 04:39:08;;;;;;;7.15;3.17;;;8.50;99.90;;;;;;4879090;29;20224;-59
2023/05/18 04:41:34;;;;;;;6.22;2.70;;;8.40;99.90;;;;;;4878829;29;20213;-59
2023/05/18 04:44:03;;;;;;;6.60;3.00;;;8.30;99.90;;;;;;4879073;29;20257;-59
2023/05/18 04:46:29;;;;;;;5.70;3.38;;;8.40;99.90;;;;;;4878981;29;20177;-60
2023/05/18 04:48:56;;;;;;;6.00;3.30;;;8.60;99.90;;;;;;4878976;29;20186;-59
2023/05/18 04:51:23;;;;;;;5.95;2.60;;;8.60;99.90;;;;;;4878840;29;20192;-59
2023/05/18 04:53:58;;;;;;;7.93;3.17;;;8.70;99.90;;;;;;4878925;29;20245;-59
2023/05/18 04:56:23;;;;;;;8.63;3.88;;;8.70;99.90;;;;;;4879067;29;20595;-59
2023/05/18 04:58:49;;;;;;;5.35;3.25;;;8.70;99.90;;;;;;4881163;29;20209;-59
2023/05/18 05:01:15;;;;;;;8.45;3.22;;;8.70;99.90;;;;;;4882391;29;20184;-59
2023/05/18 05:03:41;;;;;;;5.38;3.05;;;8.70;99.90;;;;;;4881891;29;20375;-59
2023/05/18 05:06:07;;;;;;;5.75;3.10;;;8.60;99.90;;;;;;4881936;29;20228;-59
2023/05/18 05:08:33;;;;;;;5.93;3.20;;;8.60;99.90;;;;;;4882013;29;20659;-59
2023/05/18 05:11:00;;;;;;;10.07;3.80;;;8.60;99.90;;;;;;4882190;29;20173;-59
2023/05/18 05:13:26;;;;;;;9.00;3.53;;;8.70;99.90;;;;;;4881995;29;20182;-59
2023/05/18 05:15:51;;;;;;;5.53;3.20;;;8.70;99.90;;;;;;4881954;29;20177;-59
2023/05/18 05:18:17;;;;;;;7.30;3.40;;;8.80;99.90;;;;;;4881829;29;20224;-59
2023/05/18 05:20:43;;;;;;;8.77;3.78;;;8.70;99.90;;;;;;4881698;29;20185;-59
2023/05/18 05:23:08;;;;;;;9.73;3.83;;;8.80;99.90;;;;;;4881977;29;20186;-59
2023/05/18 05:25:34;;;;;;;5.78;3.38;;;8.70;99.90;;;;;;4881944;29;20173;-60
2023/05/18 05:28:00;;;;;;;7.50;3.92;;;8.70;99.90;;;;;;4881753;29;20272;-60
2023/05/18 05:30:25;;;;;;;6.93;3.63;;;8.70;99.90;;;;;;4881790;29;20608;-59
2023/05/18 05:32:51;;;;;;;10.18;3.83;;;8.70;99.90;;;;;;4881669;29;20185;-59
2023/05/18 05:35:17;;;;;;;6.32;3.40;;;8.70;99.90;;;;;;4881503;29;20647;-59
2023/05/18 05:37:43;;;;;;;10.02;3.97;;;8.80;99.90;;;;;;4881668;29;20219;-59
2023/05/18 05:40:09;;;;;;;8.15;3.60;;;8.80;99.90;;;;;;4881625;29;20545;-59
2023/05/18 05:42:34;;;;;;;7.32;3.55;;;8.80;99.90;;;;;;4881518;29;20185;-59
2023/05/18 05:45:00;;;;;;;8.85;3.75;;;8.90;99.90;;;;;;4881379;29;20182;-59
2023/05/18 05:47:26;;;;;;;6.47;4.13;;;8.90;99.90;;;;;;4881301;29;20182;-59
2023/05/18 05:49:52;;;;;;;8.73;3.70;;;8.80;99.90;;;;;;4881200;29;20264;-59
2023/05/18 05:52:17;;;;;;;8.00;3.92;;;8.90;99.90;;;;;;4881479;29;20177;-59
2023/05/18 05:54:43;;;;;;;7.28;3.90;;;8.70;99.90;;;;;;4881452;29;20182;-59
2023/05/18 05:57:09;;;;;;;6.82;3.97;;;8.80;99.90;;;;;;4881366;29;20513;-59
2023/05/18 05:59:35;;;;;;;8.13;3.63;;;8.80;99.90;;;;;;4881157;29;20213;-59
2023/05/18 06:02:01;;;;;;;6.90;4.00;;;8.80;99.90;;;;;;4881036;29;20182;-59
2023/05/18 06:04:27;;;;;;;5.97;4.10;;;9.10;99.90;;;;;;4880900;29;20373;-59
2023/05/18 06:06:53;;;;;;;7.88;4.45;;;9.20;99.90;;;;;;4881206;29;20256;-59
2023/05/18 06:09:18;;;;;;;7.97;4.05;;;9.30;99.90;;;;;;4881003;29;20218;-59
2023/05/18 06:11:44;;;;;;;9.20;4.38;;;9.20;99.90;;;;;;4881018;29;20209;-59
2023/05/18 06:14:10;;;;;;;7.25;4.80;;;9.30;99.90;;;;;;4881074;29;20620;-59
2023/05/18 06:16:37;;;;;;;7.72;4.50;;;9.30;99.90;;;;;;4880822;29;20221;-59
2023/05/18 06:19:02;;;;;;;6.90;4.50;;;9.60;99.90;;;;;;4880578;29;20205;-59
2023/05/18 06:21:28;;;;;;;8.10;5.00;;;9.60;99.90;;;;;;4880935;29;20186;-59
2023/05/18 06:23:55;;;;;;;8.45;4.70;;;9.70;99.90;;;;;;4880847;29;20181;-59
2023/05/18 06:26:21;;;;;;;8.95;5.47;;;9.80;99.90;;;;;;4880682;29;20196;-59
2023/05/18 06:28:48;;;;;;;6.47;4.43;;;9.80;99.90;;;;;;4880623;29;20192;-59
2023/05/18 06:31:14;;;;;;;8.65;4.85;;;9.70;99.90;;;;;;4880518;29;20173;-59
2023/05/18 06:33:40;;;;;;;7.53;4.70;;;9.70;99.90;;;;;;4880510;29;20186;-59
2023/05/18 06:36:06;;;;;;;8.57;5.03;;;9.70;99.90;;;;;;4880701;29;20214;-59
2023/05/18 06:38:31;;;;;;;10.80;5.70;;;9.90;99.90;;;;;;4880711;29;20209;-59
2023/05/18 06:40:57;;;;;;;9.02;5.50;;;10.00;99.90;;;;;;4880544;29;20550;-59
2023/05/18 06:43:25;;;;;;;8.63;4.85;;;10.10;99.90;;;;;;4880439;29;20566;-59
2023/05/18 06:45:51;;;;;;;7.53;5.20;;;10.20;99.90;;;;;;4880424;29;20585;-59
2023/05/18 06:48:17;;;;;;;6.55;4.40;;;10.20;99.90;;;;;;4880537;29;20185;-59
2023/05/18 06:50:42;;;;;;;8.05;4.55;;;10.40;99.90;;;;;;4880419;29;20173;-59
2023/05/18 06:53:08;;;;;;;5.97;4.45;;;10.60;99.90;;;;;;4880336;29;20174;-59
2023/05/18 06:55:34;;;;;;;10.35;5.10;;;10.80;99.90;;;;;;4880268;29;20650;-59
2023/05/18 06:58:01;;;;;;;8.80;4.93;;;10.90;99.90;;;;;;4880100;29;20197;-59
2023/05/18 07:00:27;;;;;;;7.40;4.57;;;11.00;99.90;;;;;;4880090;29;20197;-59
2023/05/18 07:02:52;;;;;;;9.43;4.88;;;11.10;99.90;;;;;;4879927;29;20543;-59
2023/05/18 07:05:18;;;;;;;8.40;4.50;;;11.40;99.90;;;;;;4880201;29;20185;-59
2023/05/18 07:07:43;;;;;;;8.63;4.53;;;11.70;99.90;;;;;;4880337;29;20197;-59
2023/05/18 07:10:09;;;;;;;10.32;5.30;;;11.80;99.90;;;;;;4880059;29;20185;-59
2023/05/18 07:12:35;;;;;;;7.68;4.53;;;12.10;99.90;;;;;;4879953;29;20173;-59
2023/05/18 07:15:01;;;;;;;7.30;4.68;;;12.20;99.90;;;;;;4879873;29;20212;-59
2023/05/18 07:17:26;;;;;;;9.13;4.63;;;12.10;99.90;;;;;;4879675;29;20281;-59
2023/05/18 07:19:52;;;;;;;7.35;4.38;;;12.00;99.90;;;;;;4879962;29;20209;-60
2023/05/18 07:22:18;;;;;;;9.02;4.80;;;12.00;99.90;;;;;;4879530;29;20245;-59
2023/05/18 07:24:43;;;;;;;9.65;5.05;;;11.90;99.90;;;;;;4879834;29;20190;-58
2023/05/18 07:27:09;;;;;;;11.13;5.30;;;11.90;99.90;;;;;;4880047;29;20260;-59
2023/05/18 07:29:35;;;;;;;10.40;4.88;;;11.90;99.90;;;;;;4879609;29;20185;-59
2023/05/18 07:32:00;;;;;;;9.40;4.53;;;11.90;99.90;;;;;;4879574;29;20607;-59
2023/05/18 07:34:26;;;;;;;9.85;4.65;;;12.10;99.90;;;;;;4879572;29;20195;-59
2023/05/18 07:36:52;;;;;;;6.95;4.80;;;12.30;99.90;;;;;;4879723;29;20185;-59
2023/05/18 07:39:18;;;;;;;8.18;4.70;;;12.30;99.90;;;;;;4879521;29;20221;-58
2023/05/18 07:41:48;;;;;;;10.48;4.95;;;12.60;99.90;;;;;;4879575;29;20718;-58
2023/05/18 07:44:14;;;;;;;8.65;4.63;;;12.80;99.90;;;;;;4879498;29;20173;-59
2023/05/18 07:46:40;;;;;;;10.70;5.07;;;12.90;99.90;;;;;;4879320;29;20325;-59
2023/05/18 07:49:06;;;;;;;11.00;4.70;;;12.80;99.90;;;;;;4879583;29;20218;-59
2023/05/18 07:51:33;;;;;;;10.23;4.20;;;13.00;99.90;;;;;;4879516;29;20252;-59
2023/05/18 07:53:58;;;;;;;10.70;5.22;;;13.00;99.90;;;;;;4879433;29;20209;-59
2023/05/18 07:56:24;;;;;;;8.13;4.78;;;13.10;99.90;;;;;;4879403;29;20185;-59
2023/05/18 07:58:53;;;;;;;11.77;5.20;;;13.20;99.90;;;;;;4879167;29;20220;-59
2023/05/18 08:01:19;;;;;;;9.05;5.00;;;13.30;99.90;;;;;;4879202;29;20193;-59
2023/05/18 08:03:45;;;;;;;7.40;4.32;;;13.40;99.90;;;;;;4879289;29;20332;-59
2023/05/18 08:06:10;;;;;;;7.53;4.10;;;13.20;99.90;;;;;;4879410;29;20664;-59
2023/05/18 08:08:36;;;;;;;8.68;4.72;;;13.30;99.90;;;;;;4879379;29;20193;-59
2023/05/18 08:11:03;;;;;;;7.63;3.92;;;13.10;99.90;;;;;;4879231;29;20185;-59
2023/05/18 08:13:29;;;;;;;6.75;4.28;;;13.40;99.90;;;;;;4879202;29;20182;-59
2023/05/18 08:15:55;;;;;;;8.98;4.93;;;13.70;99.90;;;;;;4879069;29;20189;-59
2023/05/18 08:18:21;;;;;;;11.05;4.55;;;13.80;99.90;;;;;;4879264;29;20205;-59
2023/05/18 08:20:48;;;;;;;10.57;4.13;;;13.90;99.90;;;;;;4879281;29;20197;-59
2023/05/18 08:23:14;;;;;;;10.05;3.80;;;13.90;99.90;;;;;;4879164;29;20193;-59
2023/05/18 08:25:40;;;;;;;8.75;3.72;;;14.00;99.90;;;;;;4879116;29;20212;-59
2023/05/18 08:28:05;;;;;;;11.25;4.38;;;13.80;99.90;;;;;;4879310;29;20240;-59
2023/05/18 08:30:31;;;;;;;8.30;3.80;;;14.10;99.90;;;;;;4879035;29;20269;-59
2023/05/18 08:32:57;;;;;;;7.18;4.10;;;14.00;99.90;;;;;;4880489;29;20221;-59
2023/05/18 08:35:23;;;;;;;6.32;4.38;;;13.70;99.90;;;;;;4882832;29;20595;-59
2023/05/18 08:37:49;;;;;;;12.32;4.20;;;14.10;99.90;;;;;;4882676;29;20671;-59
2023/05/18 08:40:15;;;;;;;7.35;4.07;;;14.10;99.90;;;;;;4882685;29;20181;-59
2023/05/18 08:43:04;;;;;;;8.23;4.13;;;14.20;99.90;;;;;;4882586;29;20204;-59
2023/05/18 08:45:51;;;;;;;9.32;3.72;;;14.20;99.90;;;;;;4882650;29;20634;-59
2023/05/18 08:48:18;;;;;;;11.20;3.70;;;14.10;99.90;;;;;;4882547;29;20537;-59
2023/05/18 08:50:45;;;;;;;8.57;4.80;;;14.30;99.90;;;;;;4882428;29;20185;-59
2023/05/18 08:53:12;;;;;;;7.72;4.10;;;14.50;99.90;;;;;;4882329;29;20200;-59
2023/05/18 08:55:39;;;;;;;9.85;4.40;;;14.70;99.90;;;;;;4882474;29;20551;-59
2023/05/18 08:58:08;;;;;;;8.38;4.30;;;15.10;99.90;;;;;;4882365;29;20249;-59
2023/05/18 09:00:34;;;;;;;9.23;4.32;;;15.40;99.90;;;;;;4882363;29;20169;-59
2023/05/18 09:03:01;;;;;;;8.70;4.10;;;15.00;99.90;;;;;;4882213;29;20224;-59
2023/05/18 09:05:27;;;;;;;7.78;4.18;;;15.30;99.90;;;;;;4882148;29;20178;-59
2023/05/18 09:07:54;;;;;;;7.32;4.00;;;15.50;99.90;;;;;;4882003;29;20189;-59
2023/05/18 09:10:21;;;;;;;8.02;3.95;;;15.70;99.60;;;;;;4881963;29;20280;-59
2023/05/18 09:12:49;;;;;;;12.27;4.35;;;15.80;99.60;;;;;;4882164;29;20655;-59
2023/05/18 09:15:16;;;;;;;7.22;3.50;;;15.70;98.50;;;;;;4882079;29;20178;-59
2023/05/18 09:17:42;;;;;;;7.57;3.70;;;15.80;98.50;;;;;;4881948;29;20185;-59
2023/05/18 09:20:09;;;;;;;7.95;3.20;;;15.70;99.10;;;;;;4881872;29;20637;-59
2023/05/18 09:22:35;;;;;;;8.07;3.47;;;15.80;96.30;;;;;;4881872;29;20583;-59
2023/05/18 09:25:07;;;;;;;9.13;3.50;;;15.80;96.60;;;;;;4881797;29;20192;-59
2023/05/18 09:27:33;;;;;;;8.98;3.65;;;15.90;97.30;;;;;;4881841;29;20583;-60
2023/05/18 09:29:59;;;;;;;7.03;3.80;;;16.00;99.10;;;;;;4881777;29;20317;-59
2023/05/18 09:32:25;;;;;;;10.23;3.38;;;16.00;99.50;;;;;;4865296;29;20182;-59
2023/05/18 09:34:52;;;;;;;7.85;3.35;;;15.90;96.40;;;;;;4881597;29;20658;-59
2023/05/18 09:37:19;;;;;;;8.38;3.47;;;15.70;98.90;;;;;;4881555;29;20185;-59
2023/05/18 09:39:57;;;;;;;7.93;3.60;;;15.40;98.30;;;;;;4881544;29;20209;-59
2023/05/18 09:42:33;;;;;;;12.10;3.97;;;15.20;97.60;;;;;;4881763;29;20248;-59
2023/05/18 09:45:00;;;;;;;8.13;3.28;;;14.80;96.80;;;;;;4881081;29;20173;-59
2023/05/18 09:47:26;;;;;;;10.45;3.60;;;14.50;98.80;;;;;;4881207;29;20177;-59
2023/05/18 09:49:54;;;;;;;5.63;3.17;;;14.70;99.10;;;;;;4881289;29;20181;-59
2023/05/18 09:52:20;;;;;;;7.78;3.35;;;14.80;99.90;;;;;;4881551;29;20272;-59
2023/05/18 09:54:57;;;;;;;8.50;3.45;;;14.80;98.30;;;;;;4881482;29;20711;-59
2023/05/18 09:57:23;;;;;;;11.77;3.78;;;14.80;99.50;;;;;;4881358;29;20229;-59
2023/05/18 10:00:09;;;;;;;9.90;3.53;;;14.80;97.50;;;;;;4881021;29;20308;-59
2023/05/18 10:02:47;;;;;;;7.60;3.58;;;15.00;99.40;;;;;;4881150;29;20595;-59
2023/05/18 10:05:25;;;;;;;6.18;3.55;;;15.30;99.90;;;;;;4881234;29;20209;-59
2023/05/18 10:07:55;;;;;;;9.00;3.17;;;15.40;97.10;;;;;;4881101;29;20272;-59
2023/05/18 10:10:24;;;;;;;9.27;3.50;;;15.50;96.70;;;;;;4880893;29;20189;-60
2023/05/18 10:12:50;;;;;;;9.07;3.53;;;15.50;97.00;;;;;;4881115;29;20252;-59
2023/05/18 10:15:19;;;;;;;7.47;3.83;;;15.50;98.30;;;;;;4881011;29;20189;-59
2023/05/18 10:17:46;;;;;;;5.43;3.25;;;15.60;94.60;;;;;;4880952;29;20533;-59
2023/05/18 10:20:17;;;;;;;8.95;4.00;;;15.70;97.00;;;;;;4880932;29;20237;-59
2023/05/18 10:22:48;;;;;;;7.70;3.33;;;15.80;95.70;;;;;;4880910;29;20181;-59
2023/05/18 10:25:21;;;;;;;8.20;3.70;;;15.90;96.70;;;;;;4880676;29;20234;-59
2023/05/18 10:27:49;;;;;;;8.60;3.72;;;16.00;96.10;;;;;;4880885;29;20574;-59
2023/05/18 10:30:16;;;;;;;8.55;3.40;;;15.80;94.50;;;;;;4880850;29;20177;-59
2023/05/18 10:32:42;;;;;;;7.97;3.72;;;16.10;95.60;;;;;;4880616;29;20186;-60
2023/05/18 10:35:09;;;;;;;6.10;3.40;;;16.50;95.60;;;;;;4880544;29;20272;-59
2023/05/18 10:37:38;;;;;;;9.88;3.70;;;16.80;96.20;;;;;;4880341;29;20718;-59
2023/05/18 10:40:07;;;;;;;8.90;3.78;;;16.20;95.30;;;;;;4880653;29;20182;-59
2023/05/18 10:42:33;;;;;;;8.75;3.92;;;16.10;95.70;;;;;;4880521;29;20182;-59
2023/05/18 10:45:00;;;;;;;7.78;3.47;;;16.40;93.80;;;;;;4880395;29;20181;-59
2023/05/18 10:47:30;;;;;;;7.22;3.75;;;16.40;94.20;;;;;;4880233;29;20543;-59
2023/05/18 10:49:58;;;;;;;7.63;3.45;;;16.50;95.20;;;;;;4880100;29;20899;-59
2023/05/18 10:52:30;;;;;;;9.70;3.85;;;16.40;95.00;;;;;;4879802;29;20662;-59
2023/05/18 10:54:58;;;;;;;7.80;3.10;;;16.30;94.90;;;;;;4879939;29;20265;-59
2023/05/18 10:57:26;;;;;;;7.35;3.70;;;16.30;93.20;;;;;;4880059;29;20169;-59
2023/05/18 10:59:52;;;;;;;8.05;3.92;;;16.40;93.60;;;;;;4880258;29;20181;-60
2023/05/18 11:02:19;;;;;;;6.70;3.78;;;16.30;93.00;;;;;;4879979;29;20182;-59
2023/05/18 11:04:49;;;;;;;6.80;3.70;;;16.20;94.00;;;;;;4863345;29;20185;-59
2023/05/18 11:07:15;;;;;;;7.32;3.85;;;16.00;95.00;;;;;;4880179;29;20177;-59
2023/05/18 11:09:42;;;;;;;7.10;3.67;;;16.10;95.50;;;;;;4879978;29;20189;-59
2023/05/18 11:12:12;;;;;;;8.80;4.20;;;16.00;94.20;;;;;;4879919;29;20174;-59
2023/05/18 11:14:49;;;;;;;7.20;3.85;;;16.00;94.50;;;;;;4879976;29;20177;-59
2023/05/18 11:17:22;;;;;;;9.80;4.45;;;16.00;96.80;;;;;;4879752;29;20180;-60
2023/05/18 11:20:08;;;;;;;7.03;3.90;;;16.10;95.80;;;;;;4879991;29;20216;-60
2023/05/18 11:22:58;;;;;;;9.45;4.00;;;16.30;95.20;;;;;;4879891;29;20217;-59
2023/05/18 11:25:27;;;;;;;9.57;4.18;;;16.50;96.00;;;;;;4879854;29;20241;-59
2023/05/18 11:28:01;;;;;;;6.07;3.83;;;16.30;94.70;;;;;;4879617;29;20173;-59
2023/05/18 11:30:29;;;;;;;7.03;3.85;;;16.40;95.20;;;;;;4879434;29;20181;-60
2023/05/18 11:33:07;;;;;;;9.10;4.28;;;16.60;94.90;;;;;;4879862;29;20184;-60
2023/05/18 11:35:33;;;;;;;6.55;3.83;;;16.80;94.10;;;;;;4879573;29;20213;-60
2023/05/18 11:38:07;;;;;;;7.28;3.80;;;16.80;93.50;;;;;;4879442;29;20292;-59
2023/05/18 11:40:47;;;;;;;7.57;3.83;;;16.90;93.50;;;;;;4879755;29;20268;-60
2023/05/18 11:43:23;;;;;;;5.93;3.65;;;16.90;93.10;;;;;;4879560;29;20184;-60
2023/05/18 11:45:55;;;;;;;6.78;3.78;;;17.10;94.30;;;;;;4879510;29;20185;-60
2023/05/18 11:48:30;;;;;;;8.50;3.95;;;17.30;92.50;;;;;;4879104;29;20205;-60
2023/05/18 11:50:56;;;;;;;7.57;4.75;;;17.00;92.10;;;;;;4879343;29;20215;-60
2023/05/18 11:53:24;;;;;;;6.50;3.90;;;17.10;93.20;;;;;;4879322;29;20272;-60
2023/05/18 11:55:55;;;;;;;7.47;3.85;;;16.70;93.10;;;;;;4879485;29;20651;-60
2023/05/18 11:58:23;;;;;;;7.38;4.05;;;17.00;93.90;;;;;;4879484;29;20670;-60
2023/05/18 12:00:50;;;;;;;10.75;4.38;;;17.40;94.50;;;;;;4879377;29;20181;-60
2023/05/18 12:03:16;;;;;;;8.50;4.28;;;17.30;91.40;;;;;;4879249;29;20236;-59
2023/05/18 12:05:48;;;;;;;7.88;3.88;;;17.20;91.60;;;;;;4879478;29;20190;-60
2023/05/18 12:08:20;;;;;;;5.70;3.95;;;17.20;92.20;;;;;;4882705;29;20181;-60
2023/05/18 12:10:48;;;;;;;7.82;4.00;;;17.20;90.90;;;;;;4883228;29;20252;-60
2023/05/18 12:13:16;;;;;;;9.13;3.88;;;17.20;91.70;;;;;;4883125;29;20189;-60
2023/05/18 12:15:43;;;;;;;9.57;4.32;;;17.50;92.60;;;;;;4883054;29;20173;-60
2023/05/18 12:18:13;;;;;;;8.95;3.92;;;17.60;92.60;;;;;;4866357;29;20616;-60
2023/05/18 12:20:39;;;;;;;6.15;3.90;;;17.80;90.80;;;;;;4883070;29;20265;-60
2023/05/18 12:23:05;;;;;;;9.18;3.97;;;17.50;92.70;;;;;;4883021;29;20197;-60
2023/05/18 12:25:31;;;;;;;8.57;4.10;;;17.40;92.20;;;;;;4882844;29;20186;-60
2023/05/18 12:27:58;;;;;;;8.55;3.83;;;17.30;90.50;;;;;;4882919;29;20675;-60
2023/05/18 12:30:33;;;;;;;7.30;3.92;;;17.40;92.10;;;;;;4882725;29;20285;-60
2023/05/18 12:33:00;;;;;;;6.50;3.75;;;17.60;92.70;;;;;;4883298;29;20184;-60
2023/05/18 12:35:27;;;;;;;6.10;3.65;;;17.60;92.20;;;;;;4882749;29;20193;-59
2023/05/18 12:37:59;;;;;;;6.85;4.00;;;17.50;92.30;;;;;;4882839;29;20252;-60
2023/05/18 12:40:26;;;;;;;6.60;4.40;;;17.40;91.50;;;;;;4882681;29;20216;-59
2023/05/18 12:42:59;;;;;;;9.75;4.50;;;17.10;93.30;;;;;;4882644;29;20178;-60
2023/05/18 12:45:26;;;;;;;9.35;4.63;;;17.20;92.50;;;;;;4882727;29;20527;-60
2023/05/18 12:47:53;;;;;;;10.88;4.43;;;17.20;92.50;;;;;;4882488;29;20189;-60
2023/05/18 12:50:20;;;;;;;8.43;4.07;;;17.20;92.40;;;;;;4882293;29;20272;-60
2023/05/18 12:52:47;;;;;;;7.30;3.45;;;17.30;92.80;;;;;;4882557;29;20208;-60